createdAt,value
2019-04-30T00:00:30.334Z,0
2019-04-30T00:01:29.973Z,0
2019-04-30T00:02:34.586Z,0
2019-04-30T00:03:30.080Z,0
2019-04-30T00:04:29.788Z,0
2019-04-30T00:05:30.171Z,0
2019-04-30T00:06:34.154Z,0
2019-04-30T00:07:30.245Z,0
2019-04-30T00:08:30.059Z,0
2019-04-30T00:09:29.345Z,0
2019-04-30T00:10:35.783Z,0
2019-04-30T00:11:29.437Z,0
2019-04-30T00:12:30.776Z,0
2019-04-30T00:13:29.587Z,0
2019-04-30T00:14:36.802Z,0
2019-04-30T00:15:30.685Z,0
2019-04-30T00:16:30.868Z,0
2019-04-30T00:17:30.813Z,0
2019-04-30T00:18:30.652Z,0
2019-04-30T00:19:30.930Z,0
2019-04-30T00:20:34.237Z,0
2019-04-30T00:21:30.992Z,0
2019-04-30T00:22:33.461Z,0
2019-04-30T00:23:31.023Z,0
2019-04-30T00:24:30.137Z,0
2019-04-30T00:25:31.177Z,0
2019-04-30T00:26:30.231Z,0
2019-04-30T00:27:31.253Z,0
2019-04-30T00:28:30.306Z,0
2019-04-30T00:29:31.367Z,0
2019-04-30T00:30:30.422Z,0
2019-04-30T00:31:31.481Z,0
2019-04-30T00:32:30.560Z,0
2019-04-30T00:33:31.626Z,0
2019-04-30T00:34:35.794Z,0
2019-04-30T00:35:31.762Z,0
2019-04-30T00:36:33.943Z,0
2019-04-30T00:37:30.845Z,0
2019-04-30T00:38:34.172Z,0
2019-04-30T00:39:30.963Z,0
2019-04-30T00:40:31.010Z,0
2019-04-30T00:41:31.067Z,0
2019-04-30T00:42:31.132Z,0
2019-04-30T00:43:31.246Z,0
2019-04-30T00:44:31.349Z,0
2019-04-30T00:45:31.415Z,0
2019-04-30T00:46:32.483Z,0
2019-04-30T00:47:31.550Z,0
2019-04-30T00:48:32.586Z,0
2019-04-30T00:49:31.703Z,0
2019-04-30T00:50:33.804Z,0
2019-04-30T00:51:31.807Z,0
2019-04-30T00:52:33.804Z,0
2019-04-30T00:53:31.947Z,0
2019-04-30T00:54:32.024Z,0
2019-04-30T00:55:32.150Z,0
2019-04-30T00:56:33.171Z,0
2019-04-30T00:57:32.239Z,0
2019-04-30T00:58:33.269Z,0
2019-04-30T00:59:32.355Z,0
2019-04-30T01:00:32.444Z,0
2019-04-30T01:01:32.509Z,0
2019-04-30T01:02:33.549Z,0
2019-04-30T01:03:32.618Z,0
2019-04-30T01:04:32.702Z,0
2019-04-30T01:05:32.809Z,0
2019-04-30T01:06:32.870Z,0
2019-04-30T01:07:32.940Z,0
2019-04-30T01:08:33.007Z,0
2019-04-30T01:09:33.088Z,0
2019-04-30T01:10:34.762Z,0
2019-04-30T01:11:35.433Z,0
2019-04-30T01:12:36.905Z,0
2019-04-30T01:13:33.349Z,0
2019-04-30T01:14:33.392Z,0
2019-04-30T01:15:33.580Z,0
2019-04-30T01:16:34.602Z,0
2019-04-30T01:17:33.670Z,0
2019-04-30T01:18:34.721Z,0
2019-04-30T01:19:33.768Z,0
2019-04-30T01:20:33.867Z,0
2019-04-30T01:21:33.929Z,0
2019-04-30T01:22:34.956Z,0
2019-04-30T01:23:34.124Z,0
2019-04-30T01:24:34.997Z,0
2019-04-30T01:25:34.209Z,0
2019-04-30T01:26:35.096Z,0
2019-04-30T01:27:34.171Z,0
2019-04-30T01:28:35.325Z,0
2019-04-30T01:29:38.712Z,0
2019-04-30T01:30:34.317Z,0
2019-04-30T01:31:37.297Z,0
2019-04-30T01:32:34.408Z,0
2019-04-30T01:33:35.681Z,0
2019-04-30T01:34:34.569Z,0
2019-04-30T01:35:34.677Z,0
2019-04-30T01:36:34.792Z,0
2019-04-30T01:37:34.856Z,0
2019-04-30T01:38:34.916Z,0
2019-04-30T01:39:34.950Z,0
2019-04-30T01:40:35.036Z,0
2019-04-30T01:41:35.112Z,0
2019-04-30T01:42:35.213Z,0
2019-04-30T01:43:35.272Z,0
2019-04-30T01:44:35.363Z,0
2019-04-30T01:45:35.461Z,0
2019-04-30T01:46:35.605Z,0
2019-04-30T01:47:36.687Z,0
2019-04-30T01:48:35.757Z,0
2019-04-30T01:49:42.563Z,0
2019-04-30T01:50:38.534Z,0
2019-04-30T01:51:35.913Z,0
2019-04-30T01:52:36.154Z,0
2019-04-30T01:53:36.074Z,0
2019-04-30T01:54:38.687Z,0
2019-04-30T01:55:36.231Z,0
2019-04-30T01:56:36.330Z,0
2019-04-30T01:57:36.419Z,0
2019-04-30T01:58:36.491Z,0
2019-04-30T01:59:36.561Z,0
2019-04-30T02:00:36.652Z,0
2019-04-30T02:01:38.911Z,0
2019-04-30T02:02:36.858Z,0
2019-04-30T02:03:36.925Z,0
2019-04-30T02:04:37.453Z,0
2019-04-30T02:05:38.587Z,0
2019-04-30T02:06:37.145Z,0
2019-04-30T02:07:38.784Z,0
2019-04-30T02:08:39.308Z,0
2019-04-30T02:09:38.790Z,0
2019-04-30T02:10:37.395Z,0
2019-04-30T02:11:38.813Z,0
2019-04-30T02:12:39.176Z,0
2019-04-30T02:13:39.199Z,0
2019-04-30T02:14:39.445Z,0
2019-04-30T02:15:39.003Z,0
2019-04-30T02:16:39.499Z,0
2019-04-30T02:17:38.791Z,0
2019-04-30T02:18:39.375Z,0
2019-04-30T02:19:39.072Z,0
2019-04-30T02:20:38.416Z,0
2019-04-30T02:21:38.531Z,0
2019-04-30T02:22:38.912Z,0
2019-04-30T02:23:39.203Z,0
2019-04-30T02:24:38.671Z,0
2019-04-30T02:25:39.865Z,0
2019-04-30T02:26:38.543Z,0
2019-04-30T02:27:39.005Z,0
2019-04-30T02:28:39.336Z,0
2019-04-30T02:29:39.697Z,0
2019-04-30T02:30:40.396Z,0
2019-04-30T02:31:40.735Z,0
2019-04-30T02:32:39.476Z,0
2019-04-30T02:33:40.425Z,0
2019-04-30T02:34:41.010Z,0
2019-04-30T02:35:40.617Z,0
2019-04-30T02:36:40.284Z,0
2019-04-30T02:37:39.904Z,0
2019-04-30T02:38:39.659Z,0
2019-04-30T02:39:40.254Z,0
2019-04-30T02:40:42.445Z,0
2019-04-30T02:41:41.089Z,0
2019-04-30T02:42:39.948Z,0
2019-04-30T02:43:39.927Z,0
2019-04-30T02:44:40.640Z,0
2019-04-30T02:45:40.129Z,0
2019-04-30T02:46:40.622Z,0
2019-04-30T02:47:40.128Z,0
2019-04-30T02:48:40.195Z,0
2019-04-30T02:49:40.278Z,0
2019-04-30T02:50:40.364Z,0
2019-04-30T02:51:40.545Z,0
2019-04-30T02:52:40.466Z,0
2019-04-30T02:53:40.676Z,0
2019-04-30T02:54:40.622Z,0
2019-04-30T02:55:41.665Z,0
2019-04-30T02:56:40.773Z,0
2019-04-30T02:57:40.839Z,0
2019-04-30T02:58:41.175Z,0
2019-04-30T02:59:41.099Z,0
2019-04-30T03:00:41.168Z,0
2019-04-30T03:01:42.229Z,0
2019-04-30T03:02:42.281Z,0
2019-04-30T03:03:42.612Z,0
2019-04-30T03:04:41.406Z,0
2019-04-30T03:05:42.469Z,0
2019-04-30T03:06:41.652Z,0
2019-04-30T03:07:42.574Z,0
2019-04-30T03:08:41.665Z,0
2019-04-30T03:09:42.751Z,0
2019-04-30T03:10:41.814Z,0
2019-04-30T03:11:42.876Z,0
2019-04-30T03:12:42.998Z,0
2019-04-30T03:13:42.760Z,0
2019-04-30T03:14:43.195Z,0
2019-04-30T03:15:42.244Z,0
2019-04-30T03:16:42.312Z,0
2019-04-30T03:17:43.374Z,0
2019-04-30T03:18:42.465Z,0
2019-04-30T03:19:42.606Z,0
2019-04-30T03:20:43.665Z,0
2019-04-30T03:21:42.735Z,0
2019-04-30T03:22:43.812Z,0
2019-04-30T03:23:43.863Z,0
2019-04-30T03:24:43.187Z,0
2019-04-30T03:25:43.957Z,0
2019-04-30T03:26:43.040Z,0
2019-04-30T03:27:43.102Z,0
2019-04-30T03:28:43.162Z,0
2019-04-30T03:29:43.262Z,0
2019-04-30T03:30:43.300Z,0
2019-04-30T03:31:45.581Z,0
2019-04-30T03:32:50.396Z,0
2019-04-30T03:33:44.467Z,0
2019-04-30T03:34:44.550Z,0
2019-04-30T03:35:47.550Z,0
2019-04-30T03:36:44.640Z,0
2019-04-30T03:37:43.715Z,0
2019-04-30T03:38:43.754Z,0
2019-04-30T03:39:43.838Z,0
2019-04-30T03:40:43.891Z,0
2019-04-30T03:41:43.924Z,0
2019-04-30T03:42:43.989Z,0
2019-04-30T03:43:44.036Z,0
2019-04-30T03:44:44.126Z,0
2019-04-30T03:45:44.184Z,0
2019-04-30T03:46:44.252Z,0
2019-04-30T03:47:44.288Z,0
2019-04-30T03:48:44.487Z,0
2019-04-30T03:49:44.436Z,0
2019-04-30T03:50:53.102Z,0
2019-04-30T03:51:44.540Z,0
2019-04-30T03:52:44.602Z,0
2019-04-30T03:53:44.645Z,0
2019-04-30T03:54:44.747Z,0
2019-04-30T03:55:44.829Z,0
2019-04-30T03:56:44.903Z,0
2019-04-30T03:57:44.968Z,0
2019-04-30T03:58:45.035Z,0
2019-04-30T03:59:45.171Z,0
2019-04-30T04:00:46.690Z,0
2019-04-30T04:01:45.282Z,0
2019-04-30T04:02:45.382Z,0
2019-04-30T04:03:45.429Z,0
2019-04-30T04:04:45.508Z,0
2019-04-30T04:05:45.606Z,0
2019-04-30T04:06:45.721Z,0
2019-04-30T04:07:45.848Z,0
2019-04-30T04:08:45.849Z,5.625
2019-04-30T04:09:46.012Z,5.625
2019-04-30T04:10:46.052Z,5.625
2019-04-30T04:11:46.179Z,5.625
2019-04-30T04:12:46.301Z,5.625
2019-04-30T04:13:46.428Z,5.625
2019-04-30T04:14:46.580Z,5.625
2019-04-30T04:15:46.607Z,5.625
2019-04-30T04:16:46.600Z,5.625
2019-04-30T04:17:46.743Z,5.625
2019-04-30T04:18:49.784Z,5.625
2019-04-30T04:19:49.319Z,11.25
2019-04-30T04:20:50.158Z,11.25
2019-04-30T04:21:50.706Z,11.25
2019-04-30T04:22:49.441Z,11.25
2019-04-30T04:23:49.263Z,11.25
2019-04-30T04:24:47.136Z,11.25
2019-04-30T04:25:49.648Z,11.25
2019-04-30T04:26:49.877Z,11.25
2019-04-30T04:27:47.239Z,11.25
2019-04-30T04:28:49.382Z,16.875
2019-04-30T04:29:47.275Z,16.875
2019-04-30T04:30:50.263Z,16.875
2019-04-30T04:31:50.023Z,16.875
2019-04-30T04:32:49.915Z,16.875
2019-04-30T04:33:49.523Z,16.875
2019-04-30T04:34:50.030Z,16.875
2019-04-30T04:35:49.750Z,16.875
2019-04-30T04:36:50.434Z,16.875
2019-04-30T04:37:49.364Z,22.5
2019-04-30T04:38:50.390Z,22.5
2019-04-30T04:39:49.988Z,22.5
2019-04-30T04:40:50.148Z,22.5
2019-04-30T04:41:50.205Z,22.5
2019-04-30T04:42:49.213Z,22.5
2019-04-30T04:43:50.284Z,22.5
2019-04-30T04:44:50.073Z,22.5
2019-04-30T04:45:49.713Z,28.125
2019-04-30T04:46:50.266Z,28.125
2019-04-30T04:47:50.310Z,28.125
2019-04-30T04:48:49.312Z,28.125
2019-04-30T04:49:50.666Z,28.125
2019-04-30T04:50:50.029Z,28.125
2019-04-30T04:51:49.250Z,28.125
2019-04-30T04:52:49.520Z,33.75
2019-04-30T04:53:49.983Z,33.75
2019-04-30T04:54:50.532Z,33.75
2019-04-30T04:55:49.849Z,33.75
2019-04-30T04:56:50.374Z,33.75
2019-04-30T04:57:50.001Z,33.75
2019-04-30T04:58:50.136Z,33.75
2019-04-30T04:59:49.834Z,33.75
2019-04-30T05:00:49.426Z,39.375
2019-04-30T05:01:48.919Z,39.375
2019-04-30T05:02:49.729Z,39.375
2019-04-30T05:03:48.962Z,39.375
2019-04-30T05:04:49.162Z,39.375
2019-04-30T05:05:49.890Z,39.375
2019-04-30T05:06:49.751Z,39.375
2019-04-30T05:07:48.645Z,39.375
2019-04-30T05:08:49.294Z,39.375
2019-04-30T05:09:48.927Z,45
2019-04-30T05:10:49.463Z,45
2019-04-30T05:11:48.865Z,45
2019-04-30T05:12:49.237Z,45
2019-04-30T05:13:49.053Z,45
2019-04-30T05:14:48.728Z,50.625
2019-04-30T05:15:49.231Z,50.625
2019-04-30T05:16:48.894Z,50.625
2019-04-30T05:17:49.405Z,50.625
2019-04-30T05:18:48.929Z,50.625
2019-04-30T05:19:48.831Z,50.625
2019-04-30T05:20:49.102Z,50.625
2019-04-30T05:21:49.492Z,50.625
2019-04-30T05:22:49.056Z,50.625
2019-04-30T05:23:49.308Z,50.625
2019-04-30T05:24:49.099Z,50.625
2019-04-30T05:25:49.245Z,50.625
2019-04-30T05:26:49.116Z,56.25
2019-04-30T05:27:49.355Z,56.25
2019-04-30T05:28:52.741Z,56.25
2019-04-30T05:29:49.929Z,56.25
2019-04-30T05:30:49.552Z,56.25
2019-04-30T05:31:49.529Z,56.25
2019-04-30T05:32:50.821Z,56.25
2019-04-30T05:33:49.612Z,56.25
2019-04-30T05:34:50.634Z,56.25
2019-04-30T05:35:49.702Z,61.875
2019-04-30T05:36:49.642Z,61.875
2019-04-30T05:37:49.688Z,61.875
2019-04-30T05:38:49.704Z,61.875
2019-04-30T05:39:49.682Z,61.875
2019-04-30T05:40:49.692Z,61.875
2019-04-30T05:41:49.690Z,67.5
2019-04-30T05:42:49.798Z,67.5
2019-04-30T05:43:49.722Z,67.5
2019-04-30T05:44:49.898Z,67.5
2019-04-30T05:45:49.783Z,67.5
2019-04-30T05:46:49.796Z,67.5
2019-04-30T05:47:50.513Z,67.5
2019-04-30T05:48:49.877Z,67.5
2019-04-30T05:49:49.884Z,67.5
2019-04-30T05:50:51.708Z,67.5
2019-04-30T05:51:54.983Z,67.5
2019-04-30T05:52:50.126Z,67.5
2019-04-30T05:53:50.165Z,67.5
2019-04-30T05:54:50.179Z,67.5
2019-04-30T05:55:50.178Z,67.5
2019-04-30T05:56:50.210Z,67.5
2019-04-30T05:57:55.735Z,67.5
2019-04-30T05:58:50.389Z,67.5
2019-04-30T05:59:50.464Z,67.5
2019-04-30T06:00:51.477Z,67.5
2019-04-30T06:01:51.482Z,67.5
2019-04-30T06:02:50.654Z,73.125
2019-04-30T06:03:50.718Z,73.125
2019-04-30T06:04:50.709Z,73.125
2019-04-30T06:05:51.862Z,73.125
2019-04-30T06:06:50.931Z,73.125
2019-04-30T06:07:52.208Z,73.125
2019-04-30T06:08:52.138Z,73.125
2019-04-30T06:09:52.122Z,73.125
2019-04-30T06:10:51.746Z,73.125
2019-04-30T06:11:52.306Z,73.125
2019-04-30T06:12:51.340Z,73.125
2019-04-30T06:13:52.349Z,73.125
2019-04-30T06:14:51.914Z,78.75
2019-04-30T06:15:52.390Z,78.75
2019-04-30T06:16:51.713Z,78.75
2019-04-30T06:17:59.512Z,78.75
2019-04-30T06:18:51.569Z,78.75
2019-04-30T06:19:51.760Z,78.75
2019-04-30T06:20:52.598Z,78.75
2019-04-30T06:21:51.620Z,84.375
2019-04-30T06:22:52.761Z,84.375
2019-04-30T06:23:51.817Z,90
2019-04-30T06:24:52.810Z,84.375
2019-04-30T06:25:59.133Z,90
2019-04-30T06:26:52.991Z,95.625
2019-04-30T06:27:51.982Z,95.625
2019-04-30T06:28:52.018Z,101.25
2019-04-30T06:29:52.041Z,95.625
2019-04-30T06:30:52.045Z,95.625
2019-04-30T06:31:52.092Z,101.25
2019-04-30T06:32:52.103Z,101.25
2019-04-30T06:33:53.100Z,95.625
2019-04-30T06:34:52.109Z,95.625
2019-04-30T06:35:52.159Z,101.25
2019-04-30T06:36:53.829Z,90
2019-04-30T06:37:53.386Z,84.375
2019-04-30T06:38:52.540Z,106.875
2019-04-30T06:39:52.572Z,106.875
2019-04-30T06:40:52.584Z,101.25
2019-04-30T06:42:03.815Z,90
2019-04-30T06:42:53.725Z,106.875
2019-04-30T06:43:52.873Z,106.875
2019-04-30T06:44:53.097Z,112.5
2019-04-30T06:45:53.068Z,118.125
2019-04-30T06:46:53.235Z,106.875
2019-04-30T06:47:54.234Z,106.875
2019-04-30T06:48:53.228Z,112.5
2019-04-30T06:49:53.412Z,140.625
2019-04-30T06:50:54.475Z,129.375
2019-04-30T06:51:54.472Z,112.5
2019-04-30T06:52:56.720Z,101.25
2019-04-30T06:53:54.598Z,118.125
2019-04-30T06:54:53.773Z,123.75
2019-04-30T06:55:53.775Z,118.125
2019-04-30T06:56:53.805Z,118.125
2019-04-30T06:57:53.815Z,118.125
2019-04-30T06:58:53.824Z,118.125
2019-04-30T06:59:53.972Z,106.875
2019-04-30T07:00:54.160Z,112.5
2019-04-30T07:01:54.159Z,118.125
2019-04-30T07:02:54.159Z,106.875
2019-04-30T07:03:56.739Z,106.875
2019-04-30T07:04:54.321Z,118.125
2019-04-30T07:05:54.402Z,123.75
2019-04-30T07:06:54.557Z,135
2019-04-30T07:08:00.726Z,112.5
2019-04-30T07:08:57.128Z,123.75
2019-04-30T07:09:58.178Z,118.125
2019-04-30T07:10:57.109Z,112.5
2019-04-30T07:11:56.041Z,129.375
2019-04-30T07:12:54.984Z,129.375
2019-04-30T07:13:55.015Z,123.75
2019-04-30T07:14:55.038Z,112.5
2019-04-30T07:15:55.088Z,118.125
2019-04-30T07:16:55.116Z,118.125
2019-04-30T07:17:55.146Z,123.75
2019-04-30T07:18:55.184Z,129.375
2019-04-30T07:19:56.834Z,135
2019-04-30T07:20:55.233Z,146.25
2019-04-30T07:21:55.226Z,168.75
2019-04-30T07:23:00.695Z,191.25
2019-04-30T07:23:56.238Z,208.125
2019-04-30T07:24:55.350Z,202.5
2019-04-30T07:25:55.385Z,185.625
2019-04-30T07:26:59.626Z,196.875
2019-04-30T07:27:56.548Z,196.875
2019-04-30T07:28:55.692Z,191.25
2019-04-30T07:29:55.736Z,191.25
2019-04-30T07:31:08.477Z,202.5
2019-04-30T07:31:59.115Z,202.5
2019-04-30T07:32:55.757Z,202.5
2019-04-30T07:33:55.763Z,191.25
2019-04-30T07:34:55.783Z,174.375
2019-04-30T07:35:55.875Z,174.375
2019-04-30T07:37:10.659Z,174.375
2019-04-30T07:38:00.398Z,174.375
2019-04-30T07:38:59.822Z,185.625
2019-04-30T07:39:56.254Z,191.25
2019-04-30T07:40:56.280Z,202.5
2019-04-30T07:41:56.317Z,213.75
2019-04-30T07:42:56.319Z,225
2019-04-30T07:43:56.340Z,236.25
2019-04-30T07:44:56.361Z,236.25
2019-04-30T07:45:56.387Z,225
2019-04-30T07:46:56.435Z,213.75
2019-04-30T07:47:56.456Z,202.5
2019-04-30T07:48:56.467Z,208.125
2019-04-30T07:49:56.540Z,219.375
2019-04-30T07:50:56.541Z,247.5
2019-04-30T07:51:56.967Z,247.5
2019-04-30T07:53:02.376Z,270
2019-04-30T07:53:58.993Z,281.25
2019-04-30T07:54:56.750Z,275.625
2019-04-30T07:55:58.732Z,275.625
2019-04-30T07:56:56.924Z,270
2019-04-30T07:57:58.972Z,275.625
2019-04-30T07:58:57.156Z,286.875
2019-04-30T07:59:57.142Z,309.375
2019-04-30T08:00:59.178Z,303.75
2019-04-30T08:02:07.278Z,309.375
2019-04-30T08:02:59.833Z,303.75
2019-04-30T08:03:58.951Z,309.375
2019-04-30T08:04:59.745Z,303.75
2019-04-30T08:05:59.537Z,292.5
2019-04-30T08:06:59.466Z,270
2019-04-30T08:08:14.095Z,354.375
2019-04-30T08:09:00.758Z,838.125
2019-04-30T08:09:58.955Z,511.875
2019-04-30T08:10:59.171Z,399.375
2019-04-30T08:11:58.967Z,478.125
2019-04-30T08:13:06.104Z,945
2019-04-30T08:13:59.461Z,253.125
2019-04-30T08:14:59.428Z,281.25
2019-04-30T08:15:59.627Z,258.75
2019-04-30T08:16:58.880Z,241.875
2019-04-30T08:18:03.259Z,230.625
2019-04-30T08:18:59.136Z,219.375
2019-04-30T08:19:58.837Z,208.125
2019-04-30T08:20:58.649Z,208.125
2019-04-30T08:21:58.678Z,208.125
2019-04-30T08:23:03.076Z,213.75
2019-04-30T08:23:59.299Z,219.375
2019-04-30T08:24:58.821Z,219.375
2019-04-30T08:25:58.894Z,230.625
2019-04-30T08:26:59.044Z,225
2019-04-30T08:27:59.165Z,253.125
2019-04-30T08:28:59.738Z,309.375
2019-04-30T08:29:59.250Z,371.25
2019-04-30T08:31:00.072Z,247.5
2019-04-30T08:31:59.386Z,270
2019-04-30T08:32:59.623Z,241.875
2019-04-30T08:33:59.301Z,264.375
2019-04-30T08:35:01.108Z,427.5
2019-04-30T08:36:00.937Z,579.375
2019-04-30T08:36:59.553Z,410.625
2019-04-30T08:38:00.588Z,315
2019-04-30T08:38:59.832Z,303.75
2019-04-30T08:40:00.247Z,382.5
2019-04-30T08:41:00.749Z,348.75
2019-04-30T08:42:00.030Z,303.75
2019-04-30T08:42:59.832Z,298.125
2019-04-30T08:44:00.009Z,292.5
2019-04-30T08:44:59.985Z,281.25
2019-04-30T08:45:59.959Z,258.75
2019-04-30T08:47:00.046Z,253.125
2019-04-30T08:48:00.152Z,258.75
2019-04-30T08:49:00.506Z,281.25
2019-04-30T08:50:02.513Z,241.875
2019-04-30T08:51:00.401Z,168.75
2019-04-30T08:52:01.413Z,163.125
2019-04-30T08:53:00.871Z,174.375
2019-04-30T08:54:00.484Z,196.875
2019-04-30T08:55:12.555Z,191.25
2019-04-30T08:56:01.491Z,196.875
2019-04-30T08:57:00.509Z,264.375
2019-04-30T08:58:09.742Z,348.75
2019-04-30T08:59:01.768Z,236.25
2019-04-30T09:00:01.760Z,225
2019-04-30T09:01:01.762Z,225
2019-04-30T09:02:12.708Z,230.625
2019-04-30T09:03:01.895Z,270
2019-04-30T09:04:02.039Z,258.75
2019-04-30T09:05:02.032Z,196.875
2019-04-30T09:06:02.051Z,208.125
2019-04-30T09:07:02.050Z,208.125
2019-04-30T09:08:02.041Z,213.75
2019-04-30T09:09:02.223Z,230.625
2019-04-30T09:10:04.520Z,219.375
2019-04-30T09:11:01.288Z,219.375
2019-04-30T09:12:01.299Z,241.875
2019-04-30T09:13:01.397Z,270
2019-04-30T09:14:01.530Z,348.75
2019-04-30T09:15:01.525Z,309.375
2019-04-30T09:16:02.522Z,315
2019-04-30T09:17:01.531Z,331.875
2019-04-30T09:18:05.951Z,326.25
2019-04-30T09:19:02.649Z,331.875
2019-04-30T09:20:01.619Z,495
2019-04-30T09:21:06.177Z,568.125
2019-04-30T09:22:01.924Z,427.5
2019-04-30T09:23:03.067Z,365.625
2019-04-30T09:24:03.196Z,382.5
2019-04-30T09:25:02.327Z,360
2019-04-30T09:26:02.321Z,337.5
2019-04-30T09:27:02.450Z,331.875
2019-04-30T09:28:04.480Z,298.125
2019-04-30T09:29:02.703Z,247.5
2019-04-30T09:30:02.707Z,236.25
2019-04-30T09:31:03.695Z,236.25
2019-04-30T09:32:02.697Z,225
2019-04-30T09:33:02.702Z,219.375
2019-04-30T09:34:14.144Z,225
2019-04-30T09:35:02.777Z,219.375
2019-04-30T09:36:02.793Z,225
2019-04-30T09:37:02.815Z,225
2019-04-30T09:38:02.810Z,225
2019-04-30T09:39:02.832Z,230.625
2019-04-30T09:40:14.757Z,241.875
2019-04-30T09:41:03.903Z,247.5
2019-04-30T09:42:02.913Z,241.875
2019-04-30T09:43:02.932Z,236.25
2019-04-30T09:44:02.994Z,241.875
2019-04-30T09:45:03.049Z,247.5
2019-04-30T09:46:14.718Z,241.875
2019-04-30T09:47:03.134Z,247.5
2019-04-30T09:48:03.192Z,264.375
2019-04-30T09:49:03.231Z,253.125
2019-04-30T09:50:03.298Z,236.25
2019-04-30T09:51:03.607Z,247.5
2019-04-30T09:52:03.541Z,241.875
2019-04-30T09:53:03.548Z,241.875
2019-04-30T09:54:04.323Z,241.875
2019-04-30T09:55:03.710Z,236.25
2019-04-30T09:56:03.575Z,236.25
2019-04-30T09:57:03.587Z,241.875
2019-04-30T09:58:14.107Z,230.625
2019-04-30T09:59:04.776Z,230.625
2019-04-30T10:00:03.864Z,225
2019-04-30T10:01:03.947Z,292.5
2019-04-30T10:02:03.858Z,258.75
2019-04-30T10:03:04.014Z,298.125
2019-04-30T10:04:04.341Z,298.125
2019-04-30T10:05:04.367Z,315
2019-04-30T10:06:04.145Z,315
2019-04-30T10:07:04.150Z,337.5
2019-04-30T10:08:04.288Z,354.375
2019-04-30T10:09:04.427Z,354.375
2019-04-30T10:10:04.433Z,315
2019-04-30T10:11:04.444Z,270
2019-04-30T10:12:04.506Z,236.25
2019-04-30T10:13:04.576Z,253.125
2019-04-30T10:14:04.669Z,253.125
2019-04-30T10:15:04.704Z,343.125
2019-04-30T10:16:04.748Z,410.625
2019-04-30T10:17:04.690Z,354.375
2019-04-30T10:18:04.866Z,410.625
2019-04-30T10:19:04.869Z,399.375
2019-04-30T10:20:05.005Z,478.125
2019-04-30T10:21:05.173Z,444.375
2019-04-30T10:22:05.161Z,309.375
2019-04-30T10:23:05.319Z,292.5
2019-04-30T10:24:12.952Z,292.5
2019-04-30T10:25:05.624Z,343.125
2019-04-30T10:26:05.668Z,376.875
2019-04-30T10:27:07.755Z,697.5
2019-04-30T10:28:05.905Z,973.125
2019-04-30T10:29:05.897Z,1170
2019-04-30T10:30:05.865Z,1237.5
2019-04-30T10:31:05.910Z,1248.75
2019-04-30T10:32:05.885Z,1350
2019-04-30T10:33:06.019Z,1822.5
2019-04-30T10:34:06.096Z,2025
2019-04-30T10:35:06.067Z,2008.125
2019-04-30T10:36:06.234Z,1923.75
2019-04-30T10:37:08.941Z,1777.5
2019-04-30T10:38:06.429Z,1788.75
2019-04-30T10:39:06.562Z,1698.75
2019-04-30T10:40:06.691Z,1867.5
2019-04-30T10:41:08.721Z,1884.375
2019-04-30T10:42:06.800Z,1850.625
2019-04-30T10:43:08.836Z,1839.375
2019-04-30T10:44:08.822Z,1895.625
2019-04-30T10:45:07.111Z,1901.25
2019-04-30T10:46:07.295Z,1906.875
2019-04-30T10:47:09.164Z,1935
2019-04-30T10:48:07.419Z,1968.75
2019-04-30T10:49:09.013Z,2058.75
2019-04-30T10:50:09.648Z,2238.75
2019-04-30T10:51:09.026Z,2323.125
2019-04-30T10:52:09.296Z,2295
2019-04-30T10:53:09.122Z,2109.375
2019-04-30T10:54:08.786Z,1845
2019-04-30T10:55:09.319Z,1479.375
2019-04-30T10:56:09.682Z,1653.75
2019-04-30T10:57:08.661Z,1861.875
2019-04-30T10:58:08.307Z,1963.125
2019-04-30T10:59:08.442Z,1856.25
2019-04-30T11:00:10.102Z,1805.625
2019-04-30T11:01:09.559Z,1873.125
2019-04-30T11:02:09.099Z,1895.625
2019-04-30T11:03:18.874Z,1963.125
2019-04-30T11:04:10.017Z,2075.625
2019-04-30T11:05:09.164Z,2115
2019-04-30T11:06:09.324Z,2058.75
2019-04-30T11:07:09.320Z,2075.625
2019-04-30T11:08:10.426Z,2002.5
2019-04-30T11:09:09.552Z,2019.375
2019-04-30T11:10:09.657Z,2047.5
2019-04-30T11:11:09.781Z,2098.125
2019-04-30T11:12:09.947Z,2109.375
2019-04-30T11:13:10.077Z,2126.25
2019-04-30T11:14:10.231Z,2109.375
2019-04-30T11:15:10.335Z,2143.125
2019-04-30T11:16:13.057Z,2165.625
2019-04-30T11:17:11.638Z,2199.375
2019-04-30T11:18:11.851Z,2216.25
2019-04-30T11:19:10.968Z,2210.625
2019-04-30T11:20:12.094Z,2120.625
2019-04-30T11:21:12.222Z,1980
2019-04-30T11:22:12.416Z,1929.375
2019-04-30T11:23:14.379Z,1929.375
2019-04-30T11:24:12.352Z,1963.125
2019-04-30T11:25:11.604Z,2002.5
2019-04-30T11:26:13.032Z,2002.5
2019-04-30T11:27:12.414Z,1929.375
2019-04-30T11:28:13.345Z,1918.125
2019-04-30T11:29:12.124Z,1850.625
2019-04-30T11:30:20.049Z,1535.625
2019-04-30T11:31:13.188Z,1490.625
2019-04-30T11:32:12.312Z,1614.375
2019-04-30T11:33:12.317Z,1918.125
2019-04-30T11:34:12.338Z,1884.375
2019-04-30T11:35:12.317Z,1710
2019-04-30T11:36:13.452Z,1805.625
2019-04-30T11:37:12.605Z,1760.625
2019-04-30T11:38:12.661Z,1929.375
2019-04-30T11:39:13.823Z,1895.625
2019-04-30T11:40:12.792Z,1867.5
2019-04-30T11:41:13.906Z,1895.625
2019-04-30T11:42:14.096Z,1918.125
2019-04-30T11:43:13.190Z,1980
2019-04-30T11:44:13.217Z,1951.875
2019-04-30T11:45:14.223Z,1951.875
2019-04-30T11:46:13.259Z,1935
2019-04-30T11:47:13.244Z,1906.875
2019-04-30T11:48:13.214Z,1918.125
2019-04-30T11:49:13.244Z,1895.625
2019-04-30T11:50:13.230Z,1873.125
2019-04-30T11:51:13.383Z,1856.25
2019-04-30T11:52:13.527Z,1850.625
2019-04-30T11:53:24.336Z,1856.25
2019-04-30T11:54:14.591Z,1681.875
2019-04-30T11:55:13.701Z,1788.75
2019-04-30T11:56:13.809Z,1766.25
2019-04-30T11:57:13.954Z,1811.25
2019-04-30T11:58:21.332Z,1861.875
2019-04-30T11:59:15.210Z,1794.375
2019-04-30T12:00:14.351Z,1816.875
2019-04-30T12:01:14.491Z,1805.625
2019-04-30T12:02:14.625Z,1766.25
2019-04-30T12:03:14.949Z,1861.875
2019-04-30T12:04:15.000Z,1923.75
2019-04-30T12:05:14.988Z,1951.875
2019-04-30T12:06:15.108Z,1878.75
2019-04-30T12:07:15.227Z,1788.75
2019-04-30T12:08:15.367Z,1783.125
2019-04-30T12:09:15.509Z,1839.375
2019-04-30T12:10:15.667Z,1839.375
2019-04-30T12:11:15.825Z,1856.25
2019-04-30T12:12:15.971Z,1828.125
2019-04-30T12:13:16.127Z,1822.5
2019-04-30T12:14:16.281Z,1760.625
2019-04-30T12:15:16.440Z,1479.375
2019-04-30T12:16:18.437Z,1468.125
2019-04-30T12:17:16.617Z,1901.25
2019-04-30T12:18:16.677Z,1861.875
2019-04-30T12:19:18.745Z,371.25
2019-04-30T12:20:16.998Z,331.875
2019-04-30T12:21:16.988Z,393.75
2019-04-30T12:22:19.840Z,630
2019-04-30T12:23:18.925Z,1878.75
2019-04-30T12:24:17.313Z,1850.625
2019-04-30T12:25:18.673Z,1828.125
2019-04-30T12:26:19.040Z,1811.25
2019-04-30T12:27:18.676Z,1783.125
2019-04-30T12:28:19.470Z,1805.625
2019-04-30T12:29:19.074Z,1811.25
2019-04-30T12:30:20.359Z,1783.125
2019-04-30T12:31:18.686Z,1766.25
2019-04-30T12:32:19.145Z,1811.25
2019-04-30T12:33:19.113Z,1867.5
2019-04-30T12:34:18.354Z,1833.75
2019-04-30T12:35:18.529Z,1766.25
2019-04-30T12:36:18.926Z,1771.875
2019-04-30T12:37:19.113Z,1777.5
2019-04-30T12:38:19.219Z,1771.875
2019-04-30T12:39:18.880Z,1771.875
2019-04-30T12:40:28.621Z,1771.875
2019-04-30T12:41:20.311Z,1777.5
2019-04-30T12:42:19.279Z,1800
2019-04-30T12:43:19.371Z,618.75
2019-04-30T12:44:19.448Z,1738.125
2019-04-30T12:45:19.748Z,1805.625
2019-04-30T12:46:21.262Z,1884.375
2019-04-30T12:47:21.875Z,1299.375
2019-04-30T12:48:20.306Z,1867.5
2019-04-30T12:49:20.023Z,1861.875
2019-04-30T12:50:20.050Z,1777.5
2019-04-30T12:51:20.060Z,1704.375
2019-04-30T12:52:20.179Z,1715.625
2019-04-30T12:53:20.307Z,1710
2019-04-30T12:54:20.510Z,1693.125
2019-04-30T12:55:22.476Z,1676.25
2019-04-30T12:56:26.944Z,1648.125
2019-04-30T12:57:20.671Z,1636.875
2019-04-30T12:58:20.890Z,1670.625
2019-04-30T12:59:21.008Z,1485
2019-04-30T13:00:20.921Z,804.375
2019-04-30T13:01:21.073Z,1738.125
2019-04-30T13:02:21.189Z,1715.625
2019-04-30T13:03:21.320Z,1670.625
2019-04-30T13:04:21.457Z,1620
2019-04-30T13:05:21.567Z,1659.375
2019-04-30T13:06:22.163Z,1603.125